< < Back
Terminal Aerodrome Forecast


Current Version              Previous Versions:   1  2  3  4  5  6  7  8  9  

Terminal Aerodrome Forecast

418
FTUS42 KTAE 261120
TAFDHN
TAF
KDHN 261120Z 2612/2712 24008KT P6SM SKC
     FM261600 27011G16KT P6SM SCT040
     FM270000 29006KT P6SM SCT250=



Latest METAR

062
SAUS70 KWBC 262200 RRC
MTRDHN
METAR KDHN 262153Z 26011KT 10SM FEW060 29/16 A2973 RMK AO2 SLP062
T02940161


USA.gov is the U.S. government's official web portal to all federal, state and local government web resources and services.